EGPN/DND METAR and TAF weather

Enter ICAO airport designator
Station Type Date Time Source
EGPN METAR 2021/07/24 14:50 UTC NOAA

EGPN 241450Z 08008KT 9999 FEW022 19/13 Q1013


Station Type Date Time Source
EGPN Decoded METAR 2021/07/24 14:50 UTC NOAA

Dundee / Riverside, United Kingdom (EGPN) 56-27N 003-01W
Jul 24, 2021 - 10:50 AM EDT / 2021.07.24 1450 UTC
Wind: from the E (080 degrees) at 9 MPH (8 KT):0
Visibility: greater than 7 mile(s):0
Sky conditions: mostly clear
Temperature: 66 F (19 C)
Dew Point: 55 F (13 C)
Relative Humidity: 68%
Pressure (altimeter): 29.91 in. Hg (1013 hPa)
ob: EGPN 241450Z 08008KT 9999 FEW022 19/13 Q1013
cycle: 15

Station Type Date Time Source
EGPN TAF 2019/01/15 18:56 UTC NOAA

TAF EGPN 151750Z 1518/1621 CNL

Example: see airport list